createdAt,value
2023-02-24T00:00:00.938Z,.22
2023-02-24T00:00:31.643Z,.22
2023-02-24T00:01:02.686Z,0
2023-02-24T00:01:33.694Z,-.11
2023-02-24T00:02:04.753Z,-.22
2023-02-24T00:02:35.692Z,-.27
2023-02-24T00:03:06.830Z,-.27
2023-02-24T00:03:37.893Z,-.38
2023-02-24T00:04:08.844Z,-.50
2023-02-24T00:04:40.655Z,-.50
2023-02-24T00:05:10.800Z,-.50
2023-02-24T00:05:41.794Z,-.50
2023-02-24T00:06:12.625Z,-.50
2023-02-24T00:06:43.421Z,-.50
2023-02-24T00:07:14.775Z,-.50
2023-02-24T00:07:45.681Z,-.50
2023-02-24T00:08:16.546Z,-.50
2023-02-24T00:08:47.830Z,-.50
2023-02-24T00:09:18.646Z,-.50
2023-02-24T00:09:50.526Z,-.50
2023-02-24T00:10:20.655Z,-.50
2023-02-24T00:10:51.822Z,-.50
2023-02-24T00:11:22.792Z,-.50
2023-02-24T00:11:53.542Z,-.50
2023-02-24T00:12:24.464Z,-.50
2023-02-24T00:12:55.522Z,-.50
2023-02-24T00:13:26.946Z,-.38
2023-02-24T00:13:57.615Z,-.38
2023-02-24T00:14:28.613Z,-.38
2023-02-24T00:15:00.967Z,-.38
2023-02-24T00:15:30.827Z,-.38
2023-02-24T00:16:01.555Z,-.38
2023-02-24T00:16:32.835Z,-.38
2023-02-24T00:17:03.755Z,-.38
2023-02-24T00:17:34.832Z,-.38
2023-02-24T00:18:05.495Z,-.38
2023-02-24T00:18:36.743Z,-.38
2023-02-24T00:19:07.860Z,-.38
2023-02-24T00:19:38.870Z,-.38
2023-02-24T00:20:10.434Z,-.38
2023-02-24T00:20:40.682Z,-.38
2023-02-24T00:21:11.749Z,-.38
2023-02-24T00:21:42.755Z,-.38
2023-02-24T00:22:13.678Z,-.38
2023-02-24T00:22:44.468Z,-.38
2023-02-24T00:23:15.699Z,-.38
2023-02-24T00:23:46.466Z,-.38
2023-02-24T00:24:17.799Z,-.38
2023-02-24T00:24:48.641Z,-.38
2023-02-24T00:25:20.359Z,-.38
2023-02-24T00:25:50.685Z,-.38
2023-02-24T00:26:21.710Z,-.38
2023-02-24T00:26:52.770Z,-.38
2023-02-24T00:27:23.480Z,-.38
2023-02-24T00:27:54.503Z,-.38
2023-02-24T00:28:25.736Z,-.38
2023-02-24T00:28:56.740Z,-.38
2023-02-24T00:29:27.602Z,-.38
2023-02-24T00:29:58.907Z,-.38
2023-02-24T00:30:30.929Z,-.38
2023-02-24T00:31:00.875Z,-.38
2023-02-24T00:31:31.751Z,-.38
2023-02-24T00:32:02.747Z,-.38
2023-02-24T00:32:33.953Z,-.38
2023-02-24T00:33:04.695Z,-.38
2023-02-24T00:33:35.793Z,-.38
2023-02-24T00:34:06.818Z,-.50
2023-02-24T00:34:37.771Z,-.50
2023-02-24T00:35:08.694Z,-.50
2023-02-24T00:35:40.732Z,-.50
2023-02-24T00:36:10.820Z,-.50
2023-02-24T00:36:41.755Z,-.50
2023-02-24T00:37:12.671Z,-.50
2023-02-24T00:37:43.702Z,-.50
2023-02-24T00:38:14.636Z,-.50
2023-02-24T00:38:45.654Z,-.50
2023-02-24T00:39:16.485Z,-.50
2023-02-24T00:39:47.448Z,-.50
2023-02-24T00:40:18.786Z,-.50
2023-02-24T00:40:50.755Z,-.50
2023-02-24T00:41:20.830Z,-.61
2023-02-24T00:41:51.677Z,-.61
2023-02-24T00:42:22.449Z,-.61
2023-02-24T00:42:53.567Z,-.61
2023-02-24T00:43:24.556Z,-.61
2023-02-24T00:43:55.547Z,-.61
2023-02-24T00:44:26.823Z,-.61
2023-02-24T00:44:57.726Z,-.72
2023-02-24T00:45:28.781Z,-.72
2023-02-24T00:46:00.826Z,-.72
2023-02-24T00:46:30.700Z,-.72
2023-02-24T00:47:01.571Z,-.72
2023-02-24T00:47:32.780Z,-.72
2023-02-24T00:48:03.679Z,-.72
2023-02-24T00:48:34.715Z,-.72
2023-02-24T00:49:05.783Z,-.72
2023-02-24T00:49:36.821Z,-.72
2023-02-24T00:50:07.852Z,-.72
2023-02-24T00:50:38.719Z,-.72
2023-02-24T00:51:10.582Z,-.72
2023-02-24T00:51:40.858Z,-.72
2023-02-24T00:52:11.989Z,-.72
2023-02-24T00:52:42.822Z,-.72
2023-02-24T00:53:13.511Z,-.72
2023-02-24T00:53:44.911Z,-.72
2023-02-24T00:54:15.865Z,-.72
2023-02-24T00:54:46.613Z,-.72
2023-02-24T00:55:17.845Z,-.72
2023-02-24T00:55:48.733Z,-.72
2023-02-24T00:56:20.690Z,-.72
2023-02-24T00:56:50.676Z,-.61
2023-02-24T00:57:21.858Z,-.61
2023-02-24T00:57:52.736Z,-.61
2023-02-24T00:58:23.803Z,-.61
2023-02-24T00:58:54.502Z,-.61
2023-02-24T00:59:25.833Z,-.61
2023-02-24T00:59:56.824Z,-.61
2023-02-24T01:00:30.653Z,-.61
2023-02-24T01:00:58.667Z,-.72
2023-02-24T01:01:30.824Z,-.72
2023-02-24T01:02:00.991Z,-.77
2023-02-24T01:02:31.595Z,-.77
2023-02-24T01:03:02.803Z,-.88
2023-02-24T01:03:33.743Z,-.88
2023-02-24T01:04:04.639Z,-.88
2023-02-24T01:04:35.677Z,-.88
2023-02-24T01:05:06.541Z,-.77
2023-02-24T01:05:37.803Z,-.77
2023-02-24T01:06:08.803Z,-.77
2023-02-24T01:06:40.813Z,-.77
2023-02-24T01:07:11.272Z,-.77
2023-02-24T01:07:41.843Z,-.77
2023-02-24T01:08:12.709Z,-.77
2023-02-24T01:08:43.607Z,-.72
2023-02-24T01:09:14.811Z,-.72
2023-02-24T01:09:45.748Z,-.72
2023-02-24T01:10:16.530Z,-.72
2023-02-24T01:10:47.767Z,-.72
2023-02-24T01:11:19.089Z,-.61
2023-02-24T01:11:50.565Z,-.61
2023-02-24T01:12:20.802Z,-.61
2023-02-24T01:12:51.832Z,-.61
2023-02-24T01:13:22.743Z,-.61
2023-02-24T01:13:53.620Z,-.61
2023-02-24T01:14:24.645Z,-.61
2023-02-24T01:14:55.764Z,-.61
2023-02-24T01:15:29.481Z,-.61
2023-02-24T01:15:57.831Z,-.61
2023-02-24T01:16:28.645Z,-.50
2023-02-24T01:17:00.916Z,-.50
2023-02-24T01:17:30.695Z,-.50
2023-02-24T01:18:01.832Z,-.50
2023-02-24T01:18:32.746Z,-.50
2023-02-24T01:19:03.752Z,-.50
2023-02-24T01:19:34.677Z,-.50
2023-02-24T01:20:06.222Z,-.50
2023-02-24T01:20:36.991Z,-.50
2023-02-24T01:21:07.597Z,-.50
2023-02-24T01:21:38.669Z,-.61
2023-02-24T01:22:10.754Z,-.61
2023-02-24T01:22:40.896Z,-.61
2023-02-24T01:23:11.627Z,-.61
2023-02-24T01:23:42.711Z,-.61
2023-02-24T01:24:13.649Z,-.61
2023-02-24T01:24:44.710Z,-.61
2023-02-24T01:25:15.910Z,-.61
2023-02-24T01:25:46.594Z,-.50
2023-02-24T01:26:17.761Z,-.50
2023-02-24T01:26:48.785Z,-.50
2023-02-24T01:27:20.725Z,-.50
2023-02-24T01:27:50.451Z,-.50
2023-02-24T01:28:21.829Z,-.50
2023-02-24T01:28:52.731Z,-.50
2023-02-24T01:29:23.778Z,-.50
2023-02-24T01:29:54.639Z,-.50
2023-02-24T01:30:28.433Z,-.50
2023-02-24T01:30:56.678Z,-.50
2023-02-24T01:31:27.744Z,-.50
2023-02-24T01:31:58.907Z,-.50
2023-02-24T01:32:30.998Z,-.50
2023-02-24T01:33:01.139Z,-.50
2023-02-24T01:33:31.614Z,-.50
2023-02-24T01:34:02.784Z,-.38
2023-02-24T01:34:33.848Z,-.38
2023-02-24T01:35:04.726Z,-.38
2023-02-24T01:35:35.627Z,-.38
2023-02-24T01:36:06.918Z,-.38
2023-02-24T01:36:37.850Z,-.38
2023-02-24T01:37:08.886Z,-.38
2023-02-24T01:37:40.791Z,-.27
2023-02-24T01:38:10.854Z,-.27
2023-02-24T01:38:41.873Z,-.27
2023-02-24T01:39:12.824Z,-.27
2023-02-24T01:39:43.654Z,-.27
2023-02-24T01:40:15.507Z,-.27
2023-02-24T01:40:52.456Z,-.27
2023-02-24T01:41:16.712Z,-.27
2023-02-24T01:41:48.438Z,-.27
2023-02-24T01:42:19.968Z,-.22
2023-02-24T01:42:51.001Z,-.22
2023-02-24T01:43:20.877Z,-.22
2023-02-24T01:43:51.922Z,-.22
2023-02-24T01:44:22.857Z,-.22
2023-02-24T01:44:53.965Z,-.22
2023-02-24T01:45:27.863Z,-.22
2023-02-24T01:45:55.937Z,-.22
2023-02-24T01:46:27.232Z,-.22
2023-02-24T01:46:58.350Z,-.22
2023-02-24T01:47:28.913Z,-.22
2023-02-24T01:48:01.192Z,-.22
2023-02-24T01:48:31.042Z,-.22
2023-02-24T01:49:02.113Z,-.11
2023-02-24T01:49:33.392Z,-.11
2023-02-24T01:55:18.487Z,-.11
2023-02-24T01:55:46.314Z,-.11
2023-02-24T01:56:17.205Z,-.11
2023-02-24T01:56:47.180Z,-.11
2023-02-24T01:57:17.950Z,-.11
2023-02-24T01:57:48.894Z,-.11
2023-02-24T01:58:21.148Z,-.11
2023-02-24T01:58:51.219Z,-.11
2023-02-24T01:59:21.948Z,-.11
2023-02-24T01:59:52.653Z,-.11
2023-02-24T02:00:27.326Z,-.11
2023-02-24T02:00:54.975Z,-.11
2023-02-24T02:01:25.725Z,-.11
2023-02-24T02:01:57.004Z,-.11
2023-02-24T02:02:28.071Z,-.11
2023-02-24T02:02:58.899Z,-.11
2023-02-24T02:03:30.934Z,-.11
2023-02-24T02:04:00.714Z,-.11
2023-02-24T02:04:31.812Z,-.11
2023-02-24T02:05:03.134Z,-.11
2023-02-24T02:05:33.886Z,0
2023-02-24T02:06:04.715Z,0
2023-02-24T02:06:36.044Z,0
2023-02-24T02:07:06.669Z,0
2023-02-24T02:07:37.981Z,0
2023-02-24T02:08:08.825Z,0
2023-02-24T02:08:40.796Z,0
2023-02-24T02:09:10.955Z,0
2023-02-24T02:09:41.720Z,0
2023-02-24T02:10:12.672Z,0
2023-02-24T02:10:43.906Z,0
2023-02-24T02:11:14.806Z,0
2023-02-24T02:11:45.774Z,0
2023-02-24T02:12:17.447Z,0
2023-02-24T02:12:47.937Z,0
2023-02-24T02:13:18.876Z,0
2023-02-24T02:13:50.829Z,0
2023-02-24T02:14:20.927Z,0
2023-02-24T02:14:52.051Z,0
2023-02-24T02:15:26.138Z,0
2023-02-24T02:15:53.885Z,0
2023-02-24T02:16:24.921Z,0
2023-02-24T02:16:55.948Z,.11
2023-02-24T02:17:26.828Z,.11
2023-02-24T02:17:57.628Z,.11
2023-02-24T02:18:28.666Z,.11
2023-02-24T02:19:01.085Z,.11
2023-02-24T02:19:30.857Z,.11
2023-02-24T02:20:02.276Z,.11
2023-02-24T02:20:32.803Z,.11
2023-02-24T02:21:04.304Z,.11
2023-02-24T02:21:34.828Z,.11
2023-02-24T02:22:05.743Z,0
2023-02-24T02:22:37.037Z,0
2023-02-24T02:23:07.686Z,0
2023-02-24T02:23:38.856Z,0
2023-02-24T02:24:10.542Z,0
2023-02-24T02:24:40.931Z,0
2023-02-24T02:25:11.691Z,0
2023-02-24T02:25:42.979Z,0
2023-02-24T02:26:14.528Z,0
2023-02-24T02:26:45.160Z,0
2023-02-24T02:27:15.812Z,0
2023-02-24T02:27:47.092Z,.11
2023-02-24T02:28:18.047Z,.11
2023-02-24T02:28:49.411Z,.11
2023-02-24T02:29:21.080Z,.11
2023-02-24T02:29:51.110Z,.11
2023-02-24T02:30:24.984Z,.11
2023-02-24T02:30:52.809Z,.11
2023-02-24T02:31:24.407Z,.11
2023-02-24T02:31:55.119Z,.11
2023-02-24T02:32:26.127Z,.11
2023-02-24T02:32:57.099Z,.11
2023-02-24T02:33:28.055Z,.11
2023-02-24T02:33:59.216Z,.11
2023-02-24T02:34:30.725Z,.11
2023-02-24T02:35:00.750Z,.11
2023-02-24T02:35:31.741Z,.11
2023-02-24T02:36:03.027Z,.22
2023-02-24T02:36:33.934Z,.22
2023-02-24T02:37:05.008Z,.22
2023-02-24T02:37:35.992Z,.22
2023-02-24T02:38:06.596Z,.22
2023-02-24T02:38:37.966Z,.22
2023-02-24T02:39:08.739Z,.22
2023-02-24T02:39:41.106Z,.22
2023-02-24T02:40:11.078Z,.22
2023-02-24T02:40:41.812Z,.22
2023-02-24T02:41:12.660Z,.22
2023-02-24T02:41:43.669Z,.22
2023-02-24T02:42:14.755Z,.22
2023-02-24T02:42:46.169Z,.22
2023-02-24T02:43:17.179Z,.22
2023-02-24T02:43:48.044Z,.22
2023-02-24T02:44:18.800Z,.22
2023-02-24T02:44:50.807Z,.22
2023-02-24T02:45:23.834Z,.22
2023-02-24T02:45:51.730Z,.22
2023-02-24T02:46:22.807Z,.22
2023-02-24T02:46:53.782Z,.22
2023-02-24T02:47:24.729Z,.22
2023-02-24T02:47:55.811Z,.22
2023-02-24T02:48:26.699Z,.22
2023-02-24T02:48:57.683Z,.22
2023-02-24T02:49:28.978Z,.22
2023-02-24T02:50:00.825Z,.22
2023-02-24T02:50:31.198Z,.22
2023-02-24T02:51:02.202Z,.22
2023-02-24T02:51:33.008Z,.22
2023-02-24T02:52:03.755Z,.22
2023-02-24T02:52:35.000Z,.22
2023-02-24T02:53:06.156Z,.22
2023-02-24T02:53:37.125Z,.11
2023-02-24T02:54:07.960Z,.11
2023-02-24T02:54:38.792Z,.11
2023-02-24T02:55:10.842Z,.11
2023-02-24T02:55:40.847Z,.11
2023-02-24T02:56:11.681Z,.11
2023-02-24T02:56:42.859Z,0
2023-02-24T02:57:14.303Z,0
2023-02-24T02:57:45.172Z,-.11
2023-02-24T02:58:15.744Z,-.11
2023-02-24T02:58:47.271Z,-.11
2023-02-24T02:59:17.902Z,-.22
2023-02-24T02:59:49.551Z,-.27
2023-02-24T03:00:23.827Z,-.27
2023-02-24T03:00:51.240Z,-.27
2023-02-24T03:01:22.554Z,-.38
2023-02-24T03:01:52.903Z,-.38
2023-02-24T03:02:23.805Z,-.38
2023-02-24T03:02:54.839Z,-.38
2023-02-24T03:03:26.009Z,-.38
2023-02-24T03:03:57.252Z,-.38
2023-02-24T03:04:27.664Z,-.38
2023-02-24T03:04:58.956Z,-.38
2023-02-24T03:05:31.355Z,-.38
2023-02-24T03:06:01.131Z,-.27
2023-02-24T03:06:31.912Z,-.27
2023-02-24T03:07:03.017Z,-.27
2023-02-24T03:07:33.784Z,-.27
2023-02-24T03:08:04.853Z,-.27
2023-02-24T03:08:35.950Z,-.27
2023-02-24T03:09:06.771Z,-.27
2023-02-24T03:09:37.809Z,-.27
2023-02-24T03:10:08.699Z,-.27
2023-02-24T03:10:40.986Z,-.27
2023-02-24T03:11:11.262Z,-.27
2023-02-24T03:11:42.004Z,-.27
2023-02-24T03:12:12.765Z,-.27
2023-02-24T03:12:44.354Z,-.27
2023-02-24T03:13:14.898Z,-.27
2023-02-24T03:13:45.760Z,-.27
2023-02-24T03:14:17.254Z,-.27
2023-02-24T03:14:47.894Z,-.27
2023-02-24T03:15:21.841Z,-.27
2023-02-24T03:15:50.704Z,-.27
2023-02-24T03:16:20.875Z,-.27
2023-02-24T03:16:51.825Z,-.27
2023-02-24T03:17:22.788Z,-.38
2023-02-24T03:17:53.800Z,-.38
2023-02-24T03:18:25.040Z,-.38
2023-02-24T03:18:56.085Z,-.38
2023-02-24T03:19:26.933Z,-.38
2023-02-24T03:19:57.674Z,-.38
2023-02-24T03:20:29.061Z,-.38
2023-02-24T03:21:01.566Z,-.38
2023-02-24T03:21:30.849Z,-.38
2023-02-24T03:22:02.189Z,-.38
2023-02-24T03:22:32.871Z,-.50
2023-02-24T03:23:03.997Z,-.50
2023-02-24T03:23:34.748Z,-.50
2023-02-24T03:24:05.849Z,-.50
2023-02-24T03:24:36.619Z,-.50
2023-02-24T03:25:07.735Z,-.50
2023-02-24T03:25:38.700Z,-.50
2023-02-24T03:26:11.103Z,-.50
2023-02-24T03:26:40.620Z,-.50
2023-02-24T03:27:11.925Z,-.50
2023-02-24T03:27:42.987Z,-.50
2023-02-24T03:28:14.051Z,-.50
2023-02-24T03:28:45.074Z,-.50
2023-02-24T03:29:15.750Z,-.50
2023-02-24T03:29:46.854Z,-.50
2023-02-24T03:30:20.538Z,-.50
2023-02-24T03:30:48.722Z,-.50
2023-02-24T03:31:21.153Z,-.50
2023-02-24T03:31:50.953Z,-.50
2023-02-24T03:32:22.062Z,-.50
2023-02-24T03:32:52.911Z,-.50
2023-02-24T03:33:23.631Z,-.50
2023-02-24T03:33:54.937Z,-.50
2023-02-24T03:34:26.084Z,-.50
2023-02-24T03:34:56.638Z,-.50
2023-02-24T03:35:28.064Z,-.50
2023-02-24T03:35:59.217Z,-.50
2023-02-24T03:36:31.277Z,-.50
2023-02-24T03:37:01.396Z,-.50
2023-02-24T03:37:32.026Z,-.50
2023-02-24T03:38:03.158Z,-.50
2023-02-24T03:38:34.231Z,-.61
2023-02-24T03:39:05.238Z,-.61
2023-02-24T03:39:36.241Z,-.61
2023-02-24T03:40:07.081Z,-.61
2023-02-24T03:40:38.054Z,-.61
2023-02-24T03:41:09.048Z,-.61
2023-02-24T03:41:41.260Z,-.61
2023-02-24T03:42:11.287Z,-.61
2023-02-24T03:42:41.912Z,-.61
2023-02-24T03:43:14.424Z,-.61
2023-02-24T03:43:43.628Z,-.61
2023-02-24T03:44:14.959Z,-.61
2023-02-24T03:44:45.846Z,-.61
2023-02-24T03:45:19.770Z,-.61
2023-02-24T03:45:48.050Z,-.61
2023-02-24T03:46:19.000Z,-.61
2023-02-24T03:46:50.862Z,-.61
2023-02-24T03:47:21.010Z,-.61
2023-02-24T03:47:52.198Z,-.61
2023-02-24T03:48:22.688Z,-.61
2023-02-24T03:48:53.705Z,-.72
2023-02-24T03:49:24.828Z,-.72
2023-02-24T03:49:55.737Z,-.72
2023-02-24T03:50:27.145Z,-.72
2023-02-24T03:50:58.000Z,-.72
2023-02-24T03:51:28.764Z,-.72
2023-02-24T03:52:00.897Z,-.72
2023-02-24T03:52:31.141Z,-.72
2023-02-24T03:53:01.857Z,-.72
2023-02-24T03:53:32.916Z,-.72
2023-02-24T03:54:03.971Z,-.72
2023-02-24T03:54:34.863Z,-.72
2023-02-24T03:55:05.928Z,-.72
2023-02-24T03:55:37.277Z,-.72
2023-02-24T03:56:08.164Z,-.72
2023-02-24T03:56:38.908Z,-.72
2023-02-24T03:57:10.989Z,-.72
2023-02-24T03:57:40.620Z,-.72
2023-02-24T03:58:12.139Z,-.72
2023-02-24T03:58:43.003Z,-.72
2023-02-24T03:59:13.884Z,-.72
2023-02-24T03:59:44.904Z,-.72
2023-02-24T04:00:18.886Z,-.72
2023-02-24T04:00:47.080Z,-.61
2023-02-24T04:01:18.117Z,-.61
2023-02-24T04:01:49.032Z,-.61
2023-02-24T04:02:21.002Z,-.61
2023-02-24T04:02:51.036Z,-.61
2023-02-24T04:03:22.131Z,-.61
2023-02-24T04:03:53.246Z,-.72
2023-02-24T04:04:24.771Z,-.72
2023-02-24T04:04:54.996Z,-.72
2023-02-24T04:05:25.846Z,-.72
2023-02-24T04:05:56.697Z,-.72
2023-02-24T04:06:27.969Z,-.72
2023-02-24T04:06:58.895Z,-.72
2023-02-24T04:07:31.031Z,-.72
2023-02-24T04:08:00.937Z,-.72
2023-02-24T04:08:32.006Z,-.72
2023-02-24T04:09:03.342Z,-.72
2023-02-24T04:09:34.068Z,-.61
2023-02-24T04:10:04.979Z,-.61
2023-02-24T04:10:35.734Z,-.61
2023-02-24T04:11:06.550Z,-.61
2023-02-24T04:11:37.630Z,-.61
2023-02-24T04:12:09.101Z,-.61
2023-02-24T04:12:40.993Z,-.61
2023-02-24T04:13:10.915Z,-.61
2023-02-24T04:13:41.921Z,-.61
2023-02-24T04:14:12.910Z,-.61
2023-02-24T04:14:44.045Z,-.61
2023-02-24T04:15:18.705Z,-.61
2023-02-24T04:15:46.241Z,-.61
2023-02-24T04:16:17.443Z,-.61
2023-02-24T04:16:48.365Z,-.61
2023-02-24T04:17:19.280Z,-.61
2023-02-24T04:17:51.053Z,-.61
2023-02-24T04:18:21.173Z,-.61
2023-02-24T04:18:53.839Z,-.61
2023-02-24T04:19:22.787Z,-.61
2023-02-24T04:19:54.297Z,-.61
2023-02-24T04:20:25.098Z,-.61
2023-02-24T04:20:56.261Z,-.61
2023-02-24T04:21:27.382Z,-.61
2023-02-24T04:21:58.055Z,-.61
2023-02-24T04:22:29.004Z,-.61
2023-02-24T04:23:00.801Z,-.61
2023-02-24T04:23:30.920Z,-.61
2023-02-24T04:24:01.972Z,-.61
2023-02-24T04:24:32.827Z,-.61
2023-02-24T04:25:04.063Z,-.61
2023-02-24T04:25:34.790Z,-.61
2023-02-24T04:26:05.752Z,-.61
2023-02-24T04:26:36.727Z,-.61
2023-02-24T04:27:07.587Z,-.61
2023-02-24T04:27:38.939Z,-.61
2023-02-24T04:28:10.825Z,-.61
2023-02-24T04:28:40.867Z,-.61
2023-02-24T04:29:11.600Z,-.61
2023-02-24T04:29:42.788Z,-.61
2023-02-24T04:30:17.173Z,-.72
2023-02-24T04:30:45.040Z,-.72
2023-02-24T04:31:16.369Z,-.72
2023-02-24T04:31:47.205Z,-.72
2023-02-24T04:32:18.494Z,-.72
2023-02-24T04:32:49.220Z,-.72
2023-02-24T04:33:21.094Z,-.72
2023-02-24T04:33:51.102Z,-.72
2023-02-24T04:34:22.179Z,-.72
2023-02-24T04:34:52.758Z,-.72
2023-02-24T04:35:24.040Z,-.72
2023-02-24T04:35:54.941Z,-.72
2023-02-24T04:36:25.991Z,-.72
2023-02-24T04:36:57.074Z,-.72
2023-02-24T04:37:28.049Z,-.72
2023-02-24T04:37:59.145Z,-.72
2023-02-24T04:38:31.072Z,-.72
2023-02-24T04:39:01.200Z,-.72
2023-02-24T04:39:32.395Z,-.72
2023-02-24T04:40:02.938Z,-.72
2023-02-24T04:43:08.880Z,-.61
2023-02-24T04:43:40.533Z,-.61
2023-02-24T04:44:10.976Z,-.61
2023-02-24T04:44:41.771Z,-.61
2023-02-24T04:45:15.425Z,-.61
2023-02-24T04:45:43.791Z,-.72
2023-02-24T04:46:14.754Z,-.72
2023-02-24T04:46:46.090Z,-.72
2023-02-24T04:47:17.024Z,-.72
2023-02-24T04:47:48.378Z,-.72
2023-02-24T04:48:19.318Z,-.72
2023-02-24T04:48:50.825Z,-.77
2023-02-24T04:49:21.279Z,-.77
2023-02-24T04:49:52.065Z,-.77
2023-02-24T04:50:22.879Z,-.77
2023-02-24T04:50:54.282Z,-.77
2023-02-24T04:51:24.879Z,-.77
2023-02-24T04:51:55.826Z,-.77
2023-02-24T04:52:26.674Z,-.77
2023-02-24T04:52:58.000Z,-.77
2023-02-24T04:53:28.884Z,-.77
2023-02-24T04:54:00.885Z,-.77
2023-02-24T04:54:31.179Z,-.77
2023-02-24T04:55:02.119Z,-.77
2023-02-24T04:55:33.468Z,-.77
2023-02-24T04:56:04.460Z,-.77
2023-02-24T04:56:35.222Z,-.88
2023-02-24T04:57:06.084Z,-.88
2023-02-24T04:57:36.868Z,-.88
2023-02-24T04:58:08.011Z,-.88
2023-02-24T04:58:38.730Z,-.88
2023-02-24T04:59:10.816Z,-.88
2023-02-24T04:59:40.900Z,-.88
2023-02-24T05:00:14.901Z,-.88
2023-02-24T05:00:42.963Z,-.88
2023-02-24T05:01:14.312Z,-.88
2023-02-24T05:01:45.088Z,-.88
2023-02-24T05:02:18.250Z,-.88
2023-02-24T05:02:47.525Z,-.88
2023-02-24T05:03:17.856Z,-.88
2023-02-24T05:03:49.085Z,-.88
2023-02-24T05:04:20.875Z,-.88
2023-02-24T05:04:51.044Z,-.88
2023-02-24T05:05:22.115Z,-.88
2023-02-24T05:05:52.694Z,-.88
2023-02-24T05:06:24.149Z,-.88
2023-02-24T05:06:55.053Z,-.77
2023-02-24T05:07:26.444Z,-.77
2023-02-24T05:07:57.248Z,-.77
2023-02-24T05:08:28.123Z,-.77
2023-02-24T05:08:59.290Z,-.77
2023-02-24T05:09:30.842Z,-.77
2023-02-24T05:10:01.381Z,-.77
2023-02-24T05:10:31.978Z,-.77
2023-02-24T05:11:03.261Z,-.77
2023-02-24T05:11:33.915Z,-.77
2023-02-24T05:12:04.985Z,-.77
2023-02-24T05:12:36.369Z,-.77
2023-02-24T05:13:07.207Z,-.77
2023-02-24T05:13:38.149Z,-.77
2023-02-24T05:14:09.094Z,-.77
2023-02-24T05:14:41.138Z,-.77
2023-02-24T05:15:13.625Z,-.88
2023-02-24T05:15:41.899Z,-.88
2023-02-24T05:16:12.845Z,-.88
2023-02-24T05:16:44.138Z,-.88
2023-02-24T05:17:15.246Z,-.88
2023-02-24T05:17:46.334Z,-1.00
2023-02-24T05:18:17.114Z,-1.00
2023-02-24T05:18:48.125Z,-1.00
2023-02-24T05:19:18.952Z,-1.00
2023-02-24T05:19:51.097Z,-1.00
2023-02-24T05:20:21.006Z,-1.00
2023-02-24T05:20:53.107Z,-1.11
2023-02-24T05:21:23.263Z,-1.11
2023-02-24T05:21:53.909Z,-1.11
2023-02-24T05:22:25.117Z,-1.11
2023-02-24T05:22:55.704Z,-1.11
2023-02-24T05:23:26.913Z,-1.11
2023-02-24T05:23:58.093Z,-1.22
2023-02-24T05:24:28.815Z,-1.22
2023-02-24T05:25:00.934Z,-1.22
2023-02-24T05:25:31.448Z,-1.22
2023-02-24T05:26:02.258Z,-1.27
2023-02-24T05:26:33.306Z,-1.27
2023-02-24T05:27:04.297Z,-1.27
2023-02-24T05:27:35.071Z,-1.27
2023-02-24T05:28:06.152Z,-1.27
2023-02-24T05:28:36.936Z,-1.27
2023-02-24T05:29:08.333Z,-1.27
2023-02-24T05:29:39.556Z,-1.27
2023-02-24T05:30:13.792Z,-1.27
2023-02-24T05:30:41.020Z,-1.27
2023-02-24T05:31:12.284Z,-1.27
2023-02-24T05:31:43.167Z,-1.27
2023-02-24T05:32:14.108Z,-1.27
2023-02-24T05:32:45.060Z,-1.27
2023-02-24T05:33:16.102Z,-1.27
2023-02-24T05:33:47.043Z,-1.27
2023-02-24T05:34:18.666Z,-1.27
2023-02-24T05:34:49.959Z,-1.27
2023-02-24T05:35:21.396Z,-1.27
2023-02-24T05:35:51.247Z,-1.27
2023-02-24T05:36:21.879Z,-1.27
2023-02-24T05:36:52.905Z,-1.27
2023-02-24T05:37:24.002Z,-1.27
2023-02-24T05:37:54.991Z,-1.22
2023-02-24T05:38:25.944Z,-1.22
2023-02-24T05:38:57.141Z,-1.22
2023-02-24T05:39:27.799Z,-1.11
2023-02-24T05:39:58.722Z,-1.11
2023-02-24T05:40:31.132Z,-1.11
2023-02-24T05:41:01.144Z,-1.11
2023-02-24T05:41:32.191Z,-1.11
2023-02-24T05:42:02.914Z,-1.11
2023-02-24T05:42:34.210Z,-1.11
2023-02-24T05:43:05.097Z,-1.11
2023-02-24T05:43:35.866Z,-1.11
2023-02-24T05:44:06.940Z,-1.22
2023-02-24T05:44:37.840Z,-1.22
2023-02-24T05:45:11.519Z,-1.22
2023-02-24T05:45:40.862Z,-1.22
2023-02-24T05:46:10.930Z,-1.22
2023-02-24T05:46:42.095Z,-1.22
2023-02-24T05:47:13.033Z,-1.27
2023-02-24T05:47:43.847Z,-1.27
2023-02-24T05:48:15.154Z,-1.27
2023-02-24T05:48:46.159Z,-1.27
2023-02-24T05:49:17.055Z,-1.27
2023-02-24T05:49:47.853Z,-1.27
2023-02-24T05:50:19.289Z,-1.38
2023-02-24T05:50:51.284Z,-1.38
2023-02-24T05:51:21.625Z,-1.38
2023-02-24T05:51:52.133Z,-1.38
2023-02-24T05:52:23.040Z,-1.38
2023-02-24T05:52:53.894Z,-1.38
2023-02-24T05:53:25.278Z,-1.50
2023-02-24T05:53:56.030Z,-1.50
2023-02-24T05:54:27.702Z,-1.61
2023-02-24T05:54:58.404Z,-1.61
2023-02-24T05:55:29.114Z,-1.61
2023-02-24T05:56:01.128Z,-1.72
2023-02-24T05:56:31.109Z,-1.72
2023-02-24T05:57:01.931Z,-1.72
2023-02-24T05:57:33.077Z,-1.72
2023-02-24T05:58:04.684Z,-1.72
2023-02-24T05:58:35.424Z,-1.72
2023-02-24T05:59:06.157Z,-1.61
2023-02-24T05:59:37.328Z,-1.61
2023-02-24T06:00:10.606Z,-1.61
2023-02-24T06:00:39.211Z,-1.61
2023-02-24T06:01:11.198Z,-1.61
2023-02-24T06:01:40.849Z,-1.61
2023-02-24T06:02:12.061Z,-1.61
2023-02-24T06:02:43.118Z,-1.61
2023-02-24T06:03:13.886Z,-1.61
2023-02-24T06:03:46.325Z,-1.61
2023-02-24T06:04:16.137Z,-1.61
2023-02-24T06:04:46.920Z,-1.61
2023-02-24T06:05:19.508Z,-1.61
2023-02-24T06:05:49.535Z,-1.61
2023-02-24T06:06:21.045Z,-1.61
2023-02-24T06:06:51.120Z,-1.61
2023-02-24T06:07:22.208Z,-1.61
2023-02-24T06:07:52.884Z,-1.50
2023-02-24T06:08:24.001Z,-1.50
2023-02-24T06:08:54.971Z,-1.50
2023-02-24T06:09:25.722Z,-1.50
2023-02-24T06:09:57.067Z,-1.50
2023-02-24T06:10:28.357Z,-1.50
2023-02-24T06:10:59.219Z,-1.50
2023-02-24T06:11:31.142Z,-1.50
2023-02-24T06:12:01.386Z,-1.50
2023-02-24T06:12:32.193Z,-1.50
2023-02-24T06:13:03.054Z,-1.50
2023-02-24T06:13:34.036Z,-1.50
2023-02-24T06:14:05.335Z,-1.50
2023-02-24T06:14:36.113Z,-1.50
2023-02-24T06:15:09.944Z,-1.50
2023-02-24T06:15:37.941Z,-1.61
2023-02-24T06:16:09.186Z,-1.61
2023-02-24T06:16:41.316Z,-1.61
2023-02-24T06:17:11.135Z,-1.61
2023-02-24T06:17:41.928Z,-1.61
2023-02-24T06:18:13.222Z,-1.61
2023-02-24T06:18:45.310Z,-1.61
2023-02-24T06:19:17.551Z,-1.72
2023-02-24T06:19:46.423Z,-1.72
2023-02-24T06:20:17.508Z,-1.72
2023-02-24T06:20:49.469Z,-1.72
2023-02-24T06:21:19.565Z,-1.72
2023-02-24T06:21:51.502Z,-1.72
2023-02-24T06:22:21.357Z,-1.72
2023-02-24T06:22:52.668Z,-1.72
2023-02-24T06:23:23.638Z,-1.72
2023-02-24T06:23:54.020Z,-1.72
2023-02-24T06:24:25.525Z,-1.72
2023-02-24T06:24:56.368Z,-1.72
2023-02-24T06:25:27.560Z,-1.72
2023-02-24T06:25:58.295Z,-1.72
2023-02-24T06:26:29.089Z,-1.72
2023-02-24T06:27:01.203Z,-1.72
2023-02-24T06:27:31.283Z,-1.72
2023-02-24T06:28:02.092Z,-1.72
2023-02-24T06:28:33.210Z,-1.72
2023-02-24T06:29:04.263Z,-1.72
2023-02-24T06:29:35.459Z,-1.72
2023-02-24T06:30:09.554Z,-1.72
2023-02-24T06:30:37.431Z,-1.72
2023-02-24T06:31:08.896Z,-1.72
2023-02-24T06:31:39.587Z,-1.72
2023-02-24T06:32:11.403Z,-1.72
2023-02-24T06:32:41.366Z,-1.77
2023-02-24T06:33:12.583Z,-1.77
2023-02-24T06:33:43.534Z,-1.77
2023-02-24T06:34:14.225Z,-1.77
2023-02-24T06:34:45.882Z,-1.77
2023-02-24T06:35:16.760Z,-1.77
2023-02-24T06:35:47.237Z,-1.77
2023-02-24T06:36:18.323Z,-1.77
2023-02-24T06:36:49.154Z,-1.77
2023-02-24T06:37:21.581Z,-1.77
2023-02-24T06:37:51.455Z,-1.77
2023-02-24T06:38:22.442Z,-1.77
2023-02-24T06:38:52.932Z,-1.77
2023-02-24T06:39:24.208Z,-1.72
2023-02-24T06:39:55.184Z,-1.72
2023-02-24T06:40:26.040Z,-1.72
2023-02-24T06:40:57.145Z,-1.72
2023-02-24T06:41:27.994Z,-1.72
2023-02-24T06:41:59.036Z,-1.72
2023-02-24T06:42:31.646Z,-1.72
2023-02-24T06:43:01.651Z,-1.72
2023-02-24T06:43:32.784Z,-1.72
2023-02-24T06:44:03.692Z,-1.72
2023-02-24T06:44:34.551Z,-1.72
2023-02-24T06:45:08.308Z,-1.72
2023-02-24T06:45:36.400Z,-1.72
2023-02-24T06:46:07.419Z,-1.72
2023-02-24T06:46:38.245Z,-1.72
2023-02-24T06:47:09.233Z,-1.72
2023-02-24T06:47:41.505Z,-1.72
2023-02-24T06:48:11.179Z,-1.72
2023-02-24T06:48:42.398Z,-1.72
2023-02-24T06:49:13.558Z,-1.72
2023-02-24T06:49:44.382Z,-1.72
2023-02-24T06:50:15.319Z,-1.72
2023-02-24T06:50:46.679Z,-1.72
2023-02-24T06:51:17.182Z,-1.72
2023-02-24T06:51:48.044Z,-1.72
2023-02-24T06:52:19.687Z,-1.72
2023-02-24T06:52:51.409Z,-1.72
2023-02-24T06:53:21.657Z,-1.72
2023-02-24T06:53:52.275Z,-1.72
2023-02-24T06:54:23.144Z,-1.72
2023-02-24T06:54:54.324Z,-1.72
2023-02-24T06:55:25.470Z,-1.72
2023-02-24T06:55:56.773Z,-1.72
2023-02-24T06:56:27.656Z,-1.72
2023-02-24T06:56:58.987Z,-1.72
2023-02-24T06:57:29.709Z,-1.72
2023-02-24T06:58:01.298Z,-1.72
2023-02-24T06:58:31.472Z,-1.72
2023-02-24T06:59:02.244Z,-1.72
2023-02-24T06:59:33.417Z,-1.77